Time;durP1;ratioP1;P1;durP2;ratioP2;P2;SDS_P1;SDS_P2;PMS_P1;PMS_P2;Temp;Humidity;BMP_temperature;BMP_pressure;BME280_temperature;BME280_humidity;BME280_pressure;Samples;Min_cycle;Max_cycle;Signal;HPM_P1;HPM_P2
2022/11/11 00:01:16;;;;;;;;;;;11.90;99.90;;;;;;5093446;28;19942;-29
2022/11/11 00:03:42;;;;;;;;;;;11.90;99.90;;;;;;5094882;28;19919;-30
2022/11/11 00:06:09;;;;;;;;;;;11.90;99.90;;;;;;5102180;28;19908;-36
2022/11/11 00:08:34;;;;;;;;;;;12.00;99.90;;;;;;5102700;28;19915;-30
2022/11/11 00:11:03;;;;;;;;;;;11.90;99.90;;;;;;5097714;28;19908;-44
2022/11/11 00:13:29;;;;;;;;;;;11.90;99.90;;;;;;5094698;28;19912;-32
2022/11/11 00:15:55;;;;;;;;;;;11.90;99.90;;;;;;5092322;28;19919;-31
2022/11/11 00:26:35;;;;;;;;;;;11.90;99.90;;;;;;5097649;28;19915;-39
2022/11/11 00:29:00;;;;;;;;;;;12.00;99.90;;;;;;5100497;28;20370;-37
2022/11/11 00:31:26;;;;;;;;;;;12.00;99.90;;;;;;5093634;28;19908;-39
2022/11/11 00:34:10;;;;;;;;;;;12.00;99.90;;;;;;5093200;28;19971;-39
2022/11/11 00:36:35;;;;;;;;;;;11.90;99.90;;;;;;5098071;28;19915;-38
2022/11/11 00:39:01;;;;;;;;;;;12.00;99.90;;;;;;5099664;28;19908;-37
2022/11/11 00:41:26;;;;;;;;;;;12.00;99.90;;;;;;5094636;28;19908;-36
2022/11/11 00:43:52;;;;;;;;;;;11.90;99.90;;;;;;5093063;28;19923;-38
2022/11/11 00:51:45;;;;;;;;;;;11.90;99.90;;;;;;5095252;28;19915;-39
2022/11/11 00:54:11;;;;;;;;;;;11.90;99.90;;;;;;5100497;28;19907;-38
2022/11/11 00:56:36;;;;;;;;;;;11.90;99.90;;;;;;5100615;28;19915;-39
2022/11/11 00:59:03;;;;;;;;;;;11.80;99.90;;;;;;5113530;28;19911;-39
2022/11/11 01:01:29;;;;;;;;;;;11.80;99.90;;;;;;5094083;28;20346;-37
2022/11/11 01:03:54;;;;;;;;;;;11.80;99.90;;;;;;5104425;28;19958;-30
2022/11/11 01:06:20;;;;;;;;;;;11.80;99.90;;;;;;5099428;28;19907;-34
2022/11/11 01:08:45;;;;;;;;;;;11.90;99.90;;;;;;5101877;28;19929;-37
2022/11/11 01:11:12;;;;;;;;;;;11.90;99.90;;;;;;5098117;28;19908;-31
2022/11/11 01:13:38;;;;;;;;;;;11.90;99.90;;;;;;5107837;28;19907;-30
2022/11/11 01:16:05;;;;;;;;;;;11.90;99.90;;;;;;5096892;28;19929;-39
2022/11/11 01:18:30;;;;;;;;;;;11.90;99.90;;;;;;5105657;28;19916;-39
2022/11/11 01:20:57;;;;;;;;;;;11.90;99.90;;;;;;5115995;28;19907;-39
2022/11/11 01:23:23;;;;;;;;;;;11.90;99.90;;;;;;5108022;28;19911;-38
2022/11/11 01:25:48;;;;;;;;;;;11.90;99.90;;;;;;5104177;28;19931;-38
2022/11/11 01:28:14;;;;;;;;;;;11.90;99.90;;;;;;5108318;28;19954;-36
2022/11/11 01:30:39;;;;;;;;;;;11.90;99.90;;;;;;5105018;28;20264;-38
2022/11/11 01:33:04;;;;;;;;;;;11.90;99.90;;;;;;5101932;28;19908;-38
2022/11/11 01:35:31;;;;;;;;;;;11.90;99.90;;;;;;5105263;28;20383;-38
2022/11/11 01:37:57;;;;;;;;;;;11.90;99.90;;;;;;5098181;28;19912;-41
2022/11/11 01:40:23;;;;;;;;;;;11.80;99.90;;;;;;5115185;28;20375;-39
2022/11/11 01:42:49;;;;;;;;;;;11.80;99.90;;;;;;5114117;28;19968;-39
2022/11/11 01:45:33;;;;;;;;;;;11.80;99.90;;;;;;5113240;28;19918;-39
2022/11/11 01:50:43;;;;;;;;;;;11.70;99.90;;;;;;5102797;28;19919;-39
2022/11/11 01:53:08;;;;;;;;;;;11.70;99.90;;;;;;5096089;28;19912;-39
2022/11/11 01:55:34;;;;;;;;;;;11.70;99.90;;;;;;5095805;28;20358;-31
2022/11/11 01:58:02;;;;;;;;;;;11.60;99.90;;;;;;5098379;28;19908;-34
2022/11/11 02:00:27;;;;;;;;;;;11.60;99.90;;;;;;5112446;28;20381;-33
2022/11/11 02:02:54;;;;;;;;;;;11.60;99.90;;;;;;5113594;28;19956;-34
2022/11/11 02:08:07;;;;;;;;;;;11.50;99.90;;;;;;5114686;28;19915;-33
2022/11/11 02:10:33;;;;;;;;;;;11.50;99.90;;;;;;5101351;28;19915;-33
2022/11/11 02:15:43;;;;;;;;;;;11.50;99.90;;;;;;5100824;28;19919;-39
2022/11/11 02:18:08;;;;;;;;;;;11.50;99.90;;;;;;5109760;28;19920;-39
2022/11/11 02:20:39;;;;;;;;;;;11.50;99.90;;;;;;5099820;28;19919;-38
2022/11/11 02:23:13;;;;;;;;;;;11.50;99.90;;;;;;5107234;28;19949;-38
2022/11/11 02:25:41;;;;;;;;;;;11.40;99.90;;;;;;5115327;28;20419;-38
2022/11/11 02:28:06;;;;;;;;;;;11.40;99.90;;;;;;5108433;28;19908;-38
2022/11/11 02:30:51;;;;;;;;;;;11.40;99.90;;;;;;5109630;28;19911;-39
2022/11/11 02:33:16;;;;;;;;;;;11.30;99.90;;;;;;5097840;28;19907;-37
2022/11/11 02:35:43;;;;;;;;;;;11.30;99.90;;;;;;5114742;28;20431;-38
2022/11/11 02:38:10;;;;;;;;;;;11.30;99.90;;;;;;5106450;28;19914;-39
2022/11/11 02:43:30;;;;;;;;;;;11.30;99.90;;;;;;5084030;28;19907;-38
2022/11/11 02:45:56;;;;;;;;;;;11.30;99.90;;;;;;5112022;28;20329;-32
2022/11/11 02:48:22;;;;;;;;;;;11.30;99.90;;;;;;5111172;28;19907;-32
2022/11/11 02:50:48;;;;;;;;;;;11.30;99.90;;;;;;5096502;28;19912;-34
2022/11/11 02:53:14;;;;;;;;;;;11.30;99.90;;;;;;5099571;28;19915;-30
2022/11/11 02:55:39;;;;;;;;;;;11.20;99.90;;;;;;5100757;28;19908;-33
2022/11/11 02:58:05;;;;;;;;;;;11.20;99.90;;;;;;5112846;28;20294;-32
2022/11/11 03:00:30;;;;;;;;;;;11.20;99.90;;;;;;5107684;28;19914;-30
2022/11/11 03:02:56;;;;;;;;;;;11.20;99.90;;;;;;5102615;28;19939;-31
2022/11/11 03:05:21;;;;;;;;;;;11.10;99.90;;;;;;5111223;28;20419;-37
2022/11/11 03:07:47;;;;;;;;;;;11.20;99.90;;;;;;5109251;28;19920;-33
2022/11/11 03:10:12;;;;;;;;;;;11.20;99.90;;;;;;5109086;28;19919;-35
2022/11/11 03:12:38;;;;;;;;;;;11.30;99.90;;;;;;5111335;28;19915;-32
2022/11/11 03:15:04;;;;;;;;;;;11.30;99.90;;;;;;5108279;28;19907;-33
2022/11/11 03:17:38;;;;;;;;;;;11.30;99.90;;;;;;5106197;28;19915;-30
2022/11/11 03:23:06;;;;;;;;;;;11.30;99.90;;;;;;5094247;28;19915;-31
2022/11/11 03:25:39;;;;;;;;;;;11.30;99.90;;;;;;5106731;28;19950;-31
2022/11/11 03:28:04;;;;;;;;;;;11.30;99.90;;;;;;5093115;28;20328;-39
2022/11/11 03:30:30;;;;;;;;;;;11.30;99.90;;;;;;5092755;28;19970;-39
2022/11/11 03:32:55;;;;;;;;;;;11.30;99.90;;;;;;5111209;28;20007;-39
2022/11/11 03:35:21;;;;;;;;;;;11.30;99.90;;;;;;5112612;28;20355;-38
2022/11/11 03:41:03;;;;;;;;;;;11.30;99.90;;;;;;5070576;28;19912;-37
2022/11/11 03:43:30;;;;;;;;;;;11.30;99.90;;;;;;5100742;28;20389;-37
2022/11/11 03:45:56;;;;;;;;;;;11.40;99.90;;;;;;5106300;28;19966;-38
2022/11/11 03:48:23;;;;;;;;;;;11.30;99.90;;;;;;5096856;28;19965;-38
2022/11/11 03:50:48;;;;;;;;;;;11.30;99.90;;;;;;5099104;28;20424;-39
2022/11/11 03:53:14;;;;;;;;;;;11.30;99.90;;;;;;5101039;28;19943;-36
2022/11/11 03:55:40;;;;;;;;;;;11.30;99.90;;;;;;5101061;28;20555;-38
2022/11/11 03:58:06;;;;;;;;;;;11.40;99.90;;;;;;5098398;28;19998;-43
2022/11/11 04:00:32;;;;;;;;;;;11.40;99.90;;;;;;5106177;28;19907;-39
2022/11/11 04:11:37;;;;;;;;;;;11.40;99.90;;;;;;5099880;28;19995;-39
2022/11/11 04:16:49;;;;;;;;;;;11.40;99.90;;;;;;5095090;28;19915;-35
2022/11/11 04:21:58;;;;;;;;;;;11.50;99.90;;;;;;5095565;28;19950;-38
2022/11/11 04:27:09;;;;;;;;;;;11.40;99.90;;;;;;5105896;28;19915;-41
2022/11/11 04:29:35;;;;;;;;;;;11.40;99.90;;;;;;5105132;28;20413;-38
2022/11/11 04:34:55;;;;;;;;;;;11.40;99.90;;;;;;5110716;28;20022;-37
2022/11/11 04:42:54;;;;;;;;;;;11.40;99.90;;;;;;5103772;28;20394;-38
2022/11/11 04:45:32;;;;;;;;;;;11.30;99.90;;;;;;5100386;28;19966;-40
2022/11/11 04:47:58;;;;;;;;;;;11.30;99.90;;;;;;5101745;28;19968;-37
2022/11/11 04:50:24;;;;;;;;;;;11.20;99.90;;;;;;5112551;28;20366;-37
2022/11/11 04:52:50;;;;;;;;;;;11.20;99.90;;;;;;5102988;28;19911;-39
2022/11/11 04:57:59;;;;;;;;;;;11.10;99.90;;;;;;5111381;28;19915;-38
2022/11/11 05:00:25;;;;;;;;;;;11.10;99.90;;;;;;5099895;28;20359;-38
2022/11/11 05:11:06;;;;;;;;;;;11.00;99.90;;;;;;5110009;28;19915;-34
2022/11/11 05:21:46;;;;;;;;;;;10.70;99.90;;;;;;5103930;28;19987;-31
2022/11/11 05:26:56;;;;;;;;;;;10.70;99.90;;;;;;5102101;28;20406;-30
2022/11/11 05:29:22;;;;;;;;;;;10.70;99.90;;;;;;5107361;28;19955;-34
2022/11/11 05:31:47;;;;;;;;;;;10.70;99.90;;;;;;5102806;28;19907;-30
2022/11/11 05:34:13;;;;;;;;;;;10.70;99.90;;;;;;5098128;28;19908;-36
2022/11/11 05:36:38;;;;;;;;;;;10.80;99.90;;;;;;5111765;28;19907;-31
2022/11/11 05:39:04;;;;;;;;;;;10.70;99.90;;;;;;5096786;28;19917;-39
2022/11/11 05:41:29;;;;;;;;;;;10.60;99.90;;;;;;5096688;28;19908;-39
2022/11/11 05:43:55;;;;;;;;;;;10.60;99.90;;;;;;5099467;28;19912;-38
2022/11/11 05:46:20;;;;;;;;;;;10.60;99.90;;;;;;5106457;28;19955;-37
2022/11/11 05:51:30;;;;;;;;;;;10.60;99.90;;;;;;5103251;28;19915;-38
2022/11/11 05:53:56;;;;;;;;;;;10.50;99.90;;;;;;5109463;28;19907;-33
2022/11/11 05:56:21;;;;;;;;;;;10.60;99.90;;;;;;5111686;28;19960;-34
2022/11/11 05:58:47;;;;;;;;;;;10.50;99.90;;;;;;5095159;28;20413;-31
2022/11/11 06:01:13;;;;;;;;;;;10.50;99.90;;;;;;5100595;28;19907;-36
2022/11/11 06:03:38;;;;;;;;;;;10.50;99.90;;;;;;5102279;28;19943;-34
2022/11/11 06:06:04;;;;;;;;;;;10.50;99.90;;;;;;5101653;28;19943;-30
2022/11/11 06:08:29;;;;;;;;;;;10.50;99.90;;;;;;5096786;28;20012;-30
2022/11/11 06:10:54;;;;;;;;;;;10.50;99.90;;;;;;5098900;28;19915;-38
2022/11/11 06:13:20;;;;;;;;;;;10.50;99.90;;;;;;5107278;28;19954;-39
2022/11/11 06:15:45;;;;;;;;;;;10.50;99.90;;;;;;5097152;28;19923;-38
2022/11/11 06:18:11;;;;;;;;;;;10.50;99.90;;;;;;5114922;28;19923;-39
2022/11/11 06:20:36;;;;;;;;;;;10.50;99.90;;;;;;5109635;28;19922;-39
2022/11/11 06:23:03;;;;;;;;;;;10.50;99.90;;;;;;5098514;28;20384;-33
2022/11/11 06:28:14;;;;;;;;;;;10.50;99.90;;;;;;5094998;28;20029;-40
2022/11/11 06:30:40;;;;;;;;;;;10.50;99.90;;;;;;5098250;28;19944;-39
2022/11/11 06:33:08;;;;;;;;;;;10.50;99.90;;;;;;5115707;28;19943;-39
2022/11/11 06:35:34;;;;;;;;;;;10.50;99.90;;;;;;5097096;28;19907;-37
2022/11/11 06:38:00;;;;;;;;;;;10.60;99.90;;;;;;5097665;28;19908;-40
2022/11/11 06:40:27;;;;;;;;;;;10.60;99.90;;;;;;5099358;28;19908;-39
2022/11/11 06:42:53;;;;;;;;;;;10.60;99.90;;;;;;5094482;28;20366;-39
2022/11/11 06:45:18;;;;;;;;;;;10.60;99.90;;;;;;5108155;28;20010;-39
2022/11/11 06:47:44;;;;;;;;;;;10.60;99.90;;;;;;5107356;28;19961;-31
2022/11/11 06:50:09;;;;;;;;;;;10.60;99.90;;;;;;5095138;28;20364;-34
2022/11/11 06:52:41;;;;;;;;;;;10.70;99.90;;;;;;5095466;28;19908;-32
2022/11/11 06:55:06;;;;;;;;;;;10.70;99.90;;;;;;5095022;28;19912;-30
2022/11/11 06:57:32;;;;;;;;;;;10.70;99.90;;;;;;5091442;28;19912;-37
2022/11/11 06:59:57;;;;;;;;;;;10.70;99.90;;;;;;5099678;28;19908;-31
2022/11/11 07:02:23;;;;;;;;;;;10.70;99.90;;;;;;5101791;28;19908;-30
2022/11/11 07:04:48;;;;;;;;;;;10.70;99.90;;;;;;5105755;28;19912;-31
2022/11/11 07:07:16;;;;;;;;;;;10.70;99.90;;;;;;5107461;28;19915;-30
2022/11/11 07:09:42;;;;;;;;;;;10.70;99.90;;;;;;5099714;28;19943;-30
2022/11/11 07:12:07;;;;;;;;;;;10.70;99.90;;;;;;5096125;28;19915;-37
2022/11/11 07:14:33;;;;;;;;;;;10.70;99.90;;;;;;5113445;28;19915;-37
2022/11/11 07:16:58;;;;;;;;;;;10.70;99.90;;;;;;5114133;28;19910;-36
2022/11/11 07:19:24;;;;;;;;;;;10.70;99.90;;;;;;5105701;28;20359;-38
2022/11/11 07:21:49;;;;;;;;;;;10.70;99.90;;;;;;5097377;28;19947;-39
2022/11/11 07:24:15;;;;;;;;;;;10.70;99.90;;;;;;5098349;28;19912;-31
2022/11/11 07:26:41;;;;;;;;;;;10.80;99.90;;;;;;5095560;28;19930;-33
2022/11/11 07:29:06;;;;;;;;;;;10.80;99.90;;;;;;5098569;28;19915;-30
2022/11/11 07:31:32;;;;;;;;;;;10.80;99.90;;;;;;5111866;28;19911;-30
2022/11/11 07:33:57;;;;;;;;;;;10.80;99.90;;;;;;5101115;28;20306;-39
2022/11/11 07:36:23;;;;;;;;;;;10.80;99.90;;;;;;5102963;28;19915;-39
2022/11/11 07:38:48;;;;;;;;;;;10.80;99.90;;;;;;5101382;28;20418;-39
2022/11/11 07:41:14;;;;;;;;;;;10.80;99.90;;;;;;5099741;28;19915;-38
2022/11/11 07:43:39;;;;;;;;;;;10.80;99.90;;;;;;5093790;28;20351;-38
2022/11/11 07:46:05;;;;;;;;;;;10.80;99.90;;;;;;5093457;28;19908;-35
2022/11/11 07:48:30;;;;;;;;;;;10.70;99.90;;;;;;5102416;28;19914;-38
2022/11/11 07:50:56;;;;;;;;;;;10.70;99.90;;;;;;5110279;28;19930;-39
2022/11/11 07:53:21;;;;;;;;;;;10.70;99.90;;;;;;5105479;28;19912;-38
2022/11/11 07:55:47;;;;;;;;;;;10.70;99.90;;;;;;5106996;28;19908;-39
2022/11/11 07:58:12;;;;;;;;;;;10.70;99.90;;;;;;5102560;28;20367;-42
2022/11/11 08:00:38;;;;;;;;;;;10.70;99.90;;;;;;5098840;28;19908;-38
2022/11/11 08:03:03;;;;;;;;;;;10.80;99.90;;;;;;5094894;28;19990;-39
2022/11/11 08:05:29;;;;;;;;;;;10.80;99.90;;;;;;5093186;28;19912;-36
2022/11/11 08:07:54;;;;;;;;;;;10.70;99.90;;;;;;5095878;28;19908;-36
2022/11/11 08:10:20;;;;;;;;;;;10.70;99.90;;;;;;5100231;28;19912;-38
2022/11/11 08:15:29;;;;;;;;;;;10.70;99.90;;;;;;5102730;28;20288;-38
2022/11/11 08:17:55;;;;;;;;;;;10.70;99.90;;;;;;5093468;28;19908;-39
2022/11/11 08:20:20;;;;;;;;;;;10.70;99.90;;;;;;5102615;28;19916;-39
2022/11/11 08:22:46;;;;;;;;;;;10.70;99.90;;;;;;5093335;28;20367;-39
2022/11/11 08:25:15;;;;;;;;;;;10.70;99.90;;;;;;5093254;28;19916;-39
2022/11/11 08:27:40;;;;;;;;;;;10.70;99.90;;;;;;5099461;28;20292;-39
2022/11/11 08:30:07;;;;;;;;;;;10.70;99.90;;;;;;5093205;28;19908;-39
2022/11/11 08:32:32;;;;;;;;;;;10.70;99.90;;;;;;5090317;28;19912;-37
2022/11/11 08:34:58;;;;;;;;;;;10.70;99.90;;;;;;5096612;28;20442;-40
2022/11/11 08:37:23;;;;;;;;;;;10.70;99.90;;;;;;5093143;28;19908;-39
2022/11/11 08:39:51;;;;;;;;;;;10.70;99.90;;;;;;5093972;28;20375;-39
2022/11/11 08:42:16;;;;;;;;;;;10.70;99.90;;;;;;5103564;28;19908;-39
2022/11/11 08:44:42;;;;;;;;;;;10.70;99.90;;;;;;5105557;28;19915;-39
2022/11/11 08:47:07;;;;;;;;;;;10.70;99.90;;;;;;5103315;28;19916;-51
2022/11/11 08:49:33;;;;;;;;;;;10.70;99.90;;;;;;5093516;28;19908;-41
2022/11/11 08:51:58;;;;;;;;;;;10.70;99.90;;;;;;5096163;28;19915;-33
2022/11/11 08:54:24;;;;;;;;;;;10.70;99.90;;;;;;5096190;28;20041;-39
2022/11/11 08:56:49;;;;;;;;;;;10.70;99.90;;;;;;5098775;28;20416;-38
2022/11/11 08:59:15;;;;;;;;;;;10.80;99.90;;;;;;5112256;28;20360;-39
2022/11/11 09:01:40;;;;;;;;;;;10.80;99.90;;;;;;5095278;28;19915;-40
2022/11/11 09:04:06;;;;;;;;;;;10.80;99.90;;;;;;5104146;28;20394;-37
2022/11/11 09:06:31;;;;;;;;;;;10.90;99.90;;;;;;5097147;28;19918;-37
2022/11/11 09:08:57;;;;;;;;;;;10.90;99.90;;;;;;5095356;28;19908;-41
2022/11/11 09:11:22;;;;;;;;;;;11.00;99.90;;;;;;5111011;28;19960;-37
2022/11/11 09:13:48;;;;;;;;;;;11.00;99.90;;;;;;5099425;28;19912;-40
2022/11/11 09:16:15;;;;;;;;;;;11.10;99.90;;;;;;5094333;28;20006;-38
2022/11/11 09:18:40;;;;;;;;;;;11.10;99.90;;;;;;5110049;28;19919;-41
2022/11/11 09:21:06;;;;;;;;;;;11.20;99.90;;;;;;5095285;28;19908;-38
2022/11/11 09:23:31;;;;;;;;;;;11.10;99.90;;;;;;5091613;28;20668;-39
2022/11/11 09:26:02;;;;;;;;;;;11.20;99.90;;;;;;5098356;28;20329;-46
2022/11/11 09:28:28;;;;;;;;;;;11.20;99.90;;;;;;5099690;28;19930;-46
2022/11/11 09:30:54;;;;;;;;;;;11.30;99.90;;;;;;5108995;28;20386;-39
2022/11/11 09:33:19;;;;;;;;;;;11.30;99.90;;;;;;5113284;27;19908;-39
2022/11/11 09:35:45;;;;;;;;;;;11.30;99.90;;;;;;5111215;28;19964;-40
2022/11/11 09:38:10;;;;;;;;;;;11.30;99.90;;;;;;5101994;28;19907;-37
2022/11/11 09:40:39;;;;;;;;;;;11.30;99.90;;;;;;5104165;28;19916;-38
2022/11/11 09:43:13;;;;;;;;;;;11.30;99.90;;;;;;5116609;28;19908;-40
2022/11/11 09:45:52;;;;;;;;;;;11.30;99.90;;;;;;5109070;28;19911;-37
2022/11/11 09:48:18;;;;;;;;;;;11.20;99.90;;;;;;5097662;28;19915;-40
2022/11/11 09:50:53;;;;;;;;;;;11.20;99.90;;;;;;5097508;28;19908;-41
2022/11/11 09:53:23;;;;;;;;;;;11.30;99.90;;;;;;5114717;28;19912;-40
2022/11/11 09:55:54;;;;;;;;;;;11.30;99.90;;;;;;5106805;28;19908;-40
2022/11/11 09:58:22;;;;;;;;;;;11.30;99.90;;;;;;5111920;28;19961;-40
2022/11/11 10:00:50;;;;;;;;;;;11.30;99.90;;;;;;5113859;28;19969;-41
2022/11/11 10:03:17;;;;;;;;;;;11.40;99.90;;;;;;5101303;28;20271;-42
2022/11/11 10:06:02;;;;;;;;;;;11.50;99.90;;;;;;5096019;28;19924;-38
2022/11/11 10:08:34;;;;;;;;;;;11.60;99.90;;;;;;5114826;28;20367;-38
2022/11/11 10:11:01;;;;;;;;;;;11.60;99.90;;;;;;5102088;28;20359;-36
2022/11/11 10:13:30;;;;;;;;;;;11.70;99.90;;;;;;5095235;28;19915;-40
2022/11/11 10:15:58;;;;;;;;;;;11.60;99.90;;;;;;5099404;28;19908;-39
2022/11/11 10:18:38;;;;;;;;;;;11.70;99.90;;;;;;5094770;28;19920;-39
2022/11/11 10:21:07;;;;;;;;;;;11.70;99.90;;;;;;5098536;28;19916;-40
2022/11/11 10:23:34;;;;;;;;;;;11.70;99.90;;;;;;5119801;27;20283;-40
2022/11/11 10:26:06;;;;;;;;;;;11.80;99.90;;;;;;5114020;28;20356;-40
2022/11/11 10:28:34;;;;;;;;;;;11.90;99.90;;;;;;5123446;27;20351;-40
2022/11/11 10:31:00;;;;;;;;;;;11.90;99.90;;;;;;5096627;27;19969;-40
2022/11/11 10:33:31;;;;;;;;;;;11.90;99.90;;;;;;5097709;28;19908;-41
2022/11/11 10:36:00;;;;;;;;;;;11.80;99.90;;;;;;5097209;28;20421;-41
2022/11/11 10:38:28;;;;;;;;;;;11.80;99.90;;;;;;5105925;28;19907;-44
2022/11/11 10:40:55;;;;;;;;;;;11.90;99.90;;;;;;5100978;28;20362;-43
2022/11/11 10:43:22;;;;;;;;;;;11.90;99.90;;;;;;5110005;28;19915;-41
2022/11/11 10:46:06;;;;;;;;;;;11.90;99.90;;;;;;5102586;28;19912;-36
2022/11/11 10:48:50;;;;;;;;;;;11.90;99.90;;;;;;5094700;28;20325;-38
2022/11/11 10:51:16;;;;;;;;;;;12.00;99.90;;;;;;5102271;28;20287;-39
2022/11/11 10:53:57;;;;;;;;;;;12.00;99.90;;;;;;5104074;28;19912;-39
2022/11/11 10:56:27;;;;;;;;;;;12.10;99.90;;;;;;5102379;28;19908;-39
2022/11/11 10:58:56;;;;;;;;;;;12.10;99.90;;;;;;5095744;28;19908;-38
2022/11/11 11:01:27;;;;;;;;;;;12.10;99.90;;;;;;5109549;28;19961;-37
2022/11/11 11:03:58;;;;;;;;;;;12.20;99.90;;;;;;5094237;28;19916;-38
2022/11/11 11:06:26;;;;;;;;;;;12.20;99.90;;;;;;5104777;28;20367;-39
2022/11/11 11:08:53;;;;;;;;;;;12.20;99.90;;;;;;5092806;28;19915;-30
2022/11/11 11:11:21;;;;;;;;;;;12.20;99.90;;;;;;5099894;28;19959;-30
2022/11/11 11:13:56;;;;;;;;;;;12.20;99.90;;;;;;5100198;28;19908;-40
2022/11/11 11:16:24;;;;;;;;;;;12.30;99.90;;;;;;5100561;28;20380;-30
2022/11/11 11:19:13;;;;;;;;;;;12.30;99.90;;;;;;5098861;28;19919;-31
2022/11/11 11:21:52;;;;;;;;;;;12.30;99.90;;;;;;5102204;28;20383;-33
2022/11/11 11:24:22;;;;;;;;;;;12.30;99.90;;;;;;5102016;28;19958;-39
2022/11/11 11:26:50;;;;;;;;;;;12.40;99.90;;;;;;5104916;28;19907;-38
2022/11/11 11:29:28;;;;;;;;;;;12.40;99.90;;;;;;5095724;28;19915;-40
2022/11/11 11:31:54;;;;;;;;;;;12.50;99.90;;;;;;5098296;28;19915;-36
2022/11/11 11:34:19;;;;;;;;;;;12.50;99.90;;;;;;5098063;28;19904;-39
2022/11/11 11:37:03;;;;;;;;;;;12.60;99.90;;;;;;5100399;28;20379;-39
2022/11/11 11:39:36;;;;;;;;;;;12.60;99.90;;;;;;5101778;28;19910;-38
2022/11/11 11:42:02;;;;;;;;;;;12.70;99.90;;;;;;5100835;28;20427;-38
2022/11/11 11:44:27;;;;;;;;;;;12.70;99.90;;;;;;5097524;28;19964;-39
2022/11/11 11:46:58;;;;;;;;;;;12.70;99.90;;;;;;5098046;28;19969;-41
2022/11/11 11:49:40;;;;;;;;;;;12.80;99.90;;;;;;5102626;28;19907;-40
2022/11/11 11:52:11;;;;;;;;;;;12.80;99.90;;;;;;5107247;28;19946;-41
2022/11/11 11:55:06;;;;;;;;;;;12.90;99.90;;;;;;5110605;27;19907;-39
2022/11/11 11:57:34;;;;;;;;;;;12.90;99.90;;;;;;5089990;28;19911;-40
2022/11/11 12:00:00;;;;;;;;;;;13.00;99.90;;;;;;5097574;28;20445;-41
2022/11/11 12:02:28;;;;;;;;;;;13.00;99.90;;;;;;5094097;28;20018;-41
2022/11/11 12:05:03;;;;;;;;;;;13.00;99.90;;;;;;5096146;28;19965;-41
2022/11/11 12:07:42;;;;;;;;;;;12.90;99.90;;;;;;5094169;28;20287;-40
2022/11/11 12:10:22;;;;;;;;;;;13.00;99.90;;;;;;5093629;28;19908;-42
2022/11/11 12:13:03;;;;;;;;;;;13.00;99.90;;;;;;5095653;28;19929;-40
2022/11/11 12:15:38;;;;;;;;;;;13.00;99.90;;;;;;5097468;28;19908;-41
2022/11/11 12:18:22;;;;;;;;;;;13.10;99.90;;;;;;5106786;28;19908;-40
2022/11/11 12:21:02;;;;;;;;;;;13.10;99.90;;;;;;5097778;28;19915;-41
2022/11/11 12:23:36;;;;;;;;;;;13.20;99.90;;;;;;5091535;28;19908;-37
2022/11/11 12:26:20;;;;;;;;;;;13.20;99.90;;;;;;5098630;28;19918;-39
2022/11/11 12:28:51;;;;;;;;;;;13.20;99.90;;;;;;5098633;28;20351;-38
2022/11/11 12:31:34;;;;;;;;;;;13.20;99.90;;;;;;5109448;28;20432;-37
2022/11/11 12:34:21;;;;;;;;;;;13.20;99.90;;;;;;5093306;28;19970;-39
2022/11/11 12:36:47;;;;;;;;;;;13.20;99.90;;;;;;5092386;28;19912;-38
2022/11/11 12:39:22;;;;;;;;;;;13.30;99.90;;;;;;5110674;28;20383;-57
2022/11/11 12:41:55;;;;;;;;;;;13.30;99.90;;;;;;5113437;28;19904;-56
2022/11/11 12:44:24;;;;;;;;;;;13.40;99.90;;;;;;5102737;28;19919;-41
2022/11/11 12:46:59;;;;;;;;;;;13.50;99.90;;;;;;5105720;28;20355;-40
2022/11/11 12:49:34;;;;;;;;;;;13.60;99.90;;;;;;5112202;28;20412;-39
2022/11/11 12:52:10;;;;;;;;;;;13.70;99.90;;;;;;5107842;28;19954;-39
2022/11/11 12:54:38;;;;;;;;;;;13.90;99.90;;;;;;5106670;28;19907;-38
2022/11/11 12:57:22;;;;;;;;;;;13.90;99.90;;;;;;5115643;28;20283;-38
2022/11/11 12:59:48;;;;;;;;;;;14.00;99.90;;;;;;5111056;28;19941;-39
2022/11/11 13:02:36;;;;;;;;;;;14.00;99.90;;;;;;5123822;27;19912;-37
2022/11/11 13:05:05;;;;;;;;;;;14.00;99.90;;;;;;5100139;28;19916;-48
2022/11/11 13:07:45;;;;;;;;;;;14.10;99.90;;;;;;5110849;27;20422;-31
2022/11/11 13:10:30;;;;;;;;;;;14.10;99.90;;;;;;5109954;28;19907;-52
2022/11/11 13:13:01;;;;;;;;;;;14.10;99.90;;;;;;5098563;28;19908;-31
2022/11/11 13:15:27;;;;;;;;;;;14.10;99.90;;;;;;5109039;28;19908;-30
2022/11/11 13:17:53;;;;;;;;;;;14.20;99.90;;;;;;5108491;28;19920;-33
2022/11/11 13:20:18;;;;;;;;;;;14.20;99.90;;;;;;5101566;28;20409;-35
2022/11/11 13:22:47;;;;;;;;;;;14.30;99.90;;;;;;5116423;28;19908;-36
2022/11/11 13:25:15;;;;;;;;;;;14.30;99.90;;;;;;5129378;27;19915;-30
2022/11/11 13:27:40;;;;;;;;;;;14.30;99.90;;;;;;5129099;27;19907;-31
2022/11/11 13:30:09;;;;;;;;;;;14.40;99.90;;;;;;5116595;28;19931;-33
2022/11/11 13:32:39;;;;;;;;;;;14.40;99.90;;;;;;5111265;28;19907;-33
2022/11/11 13:35:16;;;;;;;;;;;14.50;99.90;;;;;;5112435;28;19915;-31
2022/11/11 13:37:43;;;;;;;;;;;14.60;99.90;;;;;;5097965;28;20372;-32
2022/11/11 13:40:22;;;;;;;;;;;14.70;99.90;;;;;;5099672;28;19925;-31
2022/11/11 13:42:49;;;;;;;;;;;14.60;99.90;;;;;;5109152;28;19907;-41
2022/11/11 13:45:30;;;;;;;;;;;14.60;99.90;;;;;;5100745;28;19911;-31
2022/11/11 13:47:56;;;;;;;;;;;14.60;99.90;;;;;;5098981;28;20356;-31
2022/11/11 13:50:27;;;;;;;;;;;14.60;99.90;;;;;;5100222;28;19908;-30
2022/11/11 13:53:06;;;;;;;;;;;14.60;99.90;;;;;;5096001;28;19916;-33
2022/11/11 13:55:37;;;;;;;;;;;14.50;99.90;;;;;;5114918;28;19908;-39
2022/11/11 13:58:03;;;;;;;;;;;14.50;99.90;;;;;;5116593;28;20016;-31
2022/11/11 14:00:36;;;;;;;;;;;14.50;99.90;;;;;;5116196;28;19959;-31
2022/11/11 14:03:27;;;;;;;;;;;14.50;99.90;;;;;;5115027;28;19907;-30
2022/11/11 14:06:12;;;;;;;;;;;14.40;99.90;;;;;;5111720;28;19911;-30
2022/11/11 14:08:46;;;;;;;;;;;14.40;99.90;;;;;;5099473;28;20347;-31
2022/11/11 14:11:26;;;;;;;;;;;14.50;99.90;;;;;;5095946;28;19919;-33
2022/11/11 14:13:53;;;;;;;;;;;14.50;99.90;;;;;;5094277;28;20379;-30
2022/11/11 14:16:34;;;;;;;;;;;14.40;99.90;;;;;;5101908;28;19908;-29
2022/11/11 14:19:18;;;;;;;;;;;14.30;99.90;;;;;;5104641;28;19911;-30
2022/11/11 14:21:47;;;;;;;;;;;14.40;99.90;;;;;;5095778;28;19908;-30
2022/11/11 14:24:22;;;;;;;;;;;14.30;99.90;;;;;;5100184;28;20363;-33
2022/11/11 14:27:00;;;;;;;;;;;14.30;99.90;;;;;;5103606;28;19915;-30
2022/11/11 14:29:33;;;;;;;;;;;14.30;99.90;;;;;;5099939;28;20313;-31
2022/11/11 14:32:22;;;;;;;;;;;14.30;99.90;;;;;;5101508;28;20404;-33
2022/11/11 14:35:07;;;;;;;;;;;14.20;99.90;;;;;;5109163;28;19907;-39
2022/11/11 14:37:42;;;;;;;;;;;14.20;99.90;;;;;;5100099;28;20006;-37
2022/11/11 14:40:09;;;;;;;;;;;14.20;99.90;;;;;;5101333;28;20320;-40
2022/11/11 14:42:34;;;;;;;;;;;14.20;99.90;;;;;;5114201;28;19908;-39
2022/11/11 14:45:00;;;;;;;;;;;14.20;99.90;;;;;;5108345;28;19911;-38
2022/11/11 14:47:29;;;;;;;;;;;14.20;99.90;;;;;;5098272;28;19916;-39
2022/11/11 14:49:55;;;;;;;;;;;14.20;99.90;;;;;;5109818;28;20364;-39
2022/11/11 14:52:40;;;;;;;;;;;14.10;99.90;;;;;;5094909;28;19942;-39
2022/11/11 14:55:18;;;;;;;;;;;14.00;99.90;;;;;;5115072;28;20407;-39
2022/11/11 14:57:55;;;;;;;;;;;14.00;99.90;;;;;;5099473;28;20360;-39
2022/11/11 15:00:28;;;;;;;;;;;13.90;99.90;;;;;;5104436;28;19908;-39
2022/11/11 15:02:56;;;;;;;;;;;13.90;99.90;;;;;;5104256;28;19912;-39
2022/11/11 15:05:29;;;;;;;;;;;13.70;99.90;;;;;;5094664;28;20389;-37
2022/11/11 15:08:04;;;;;;;;;;;13.80;99.90;;;;;;5094681;28;19908;-39
2022/11/11 15:10:41;;;;;;;;;;;13.80;99.90;;;;;;5094787;28;20369;-39
2022/11/11 15:13:07;;;;;;;;;;;13.70;99.90;;;;;;5108403;28;19933;-36
2022/11/11 15:15:38;;;;;;;;;;;13.70;99.90;;;;;;5109445;28;20311;-39
2022/11/11 15:18:24;;;;;;;;;;;13.60;99.90;;;;;;5095338;28;19907;-38
2022/11/11 15:21:11;;;;;;;;;;;13.60;99.90;;;;;;5096047;28;19916;-40
2022/11/11 15:23:40;;;;;;;;;;;13.60;99.90;;;;;;5112266;28;19908;-40
2022/11/11 15:26:19;;;;;;;;;;;13.50;99.90;;;;;;5093503;28;20352;-39
2022/11/11 15:28:51;;;;;;;;;;;13.50;99.90;;;;;;5111340;28;19994;-37
2022/11/11 15:31:19;;;;;;;;;;;13.40;99.90;;;;;;5113625;28;20375;-39
2022/11/11 15:33:45;;;;;;;;;;;13.40;99.90;;;;;;5103942;28;19908;-39
2022/11/11 15:36:16;;;;;;;;;;;13.30;99.90;;;;;;5113452;28;20279;-39
2022/11/11 15:38:42;;;;;;;;;;;13.30;99.90;;;;;;5114373;28;20409;-38
2022/11/11 15:41:20;;;;;;;;;;;13.20;99.90;;;;;;5114441;28;19907;-39
2022/11/11 15:44:04;;;;;;;;;;;13.10;99.90;;;;;;5113395;28;20374;-38
2022/11/11 15:46:30;;;;;;;;;;;13.10;99.90;;;;;;5113226;28;19915;-39
2022/11/11 15:48:56;;;;;;;;;;;13.00;99.90;;;;;;5095532;28;19908;-39
2022/11/11 15:51:21;;;;;;;;;;;13.00;99.90;;;;;;5092060;28;19935;-38
2022/11/11 15:53:47;;;;;;;;;;;13.00;99.90;;;;;;5093926;28;20364;-38